sensor_id;sensor_type;location;lat;lon;timestamp;temperature;humidity
3067;DHT22;1544;48.834;9.194;2023-02-10T00:01:58;-1.00;31.90
3067;DHT22;1544;48.834;9.194;2023-02-10T00:04:33;-1.00;31.90
3067;DHT22;1544;48.834;9.194;2023-02-10T00:07:08;-1.00;31.90
3067;DHT22;1544;48.834;9.194;2023-02-10T00:09:43;-1.10;31.90
3067;DHT22;1544;48.834;9.194;2023-02-10T00:12:18;-1.10;31.90
3067;DHT22;1544;48.834;9.194;2023-02-10T00:14:53;-1.10;32.00
3067;DHT22;1544;48.834;9.194;2023-02-10T00:17:28;-1.20;32.10
3067;DHT22;1544;48.834;9.194;2023-02-10T00:20:03;-1.10;32.30
3067;DHT22;1544;48.834;9.194;2023-02-10T00:22:38;-1.20;32.40
3067;DHT22;1544;48.834;9.194;2023-02-10T00:25:13;-1.20;32.60
3067;DHT22;1544;48.834;9.194;2023-02-10T00:27:47;-1.20;32.60
3067;DHT22;1544;48.834;9.194;2023-02-10T00:30:22;-1.20;32.60
3067;DHT22;1544;48.834;9.194;2023-02-10T00:32:57;-1.20;32.70
3067;DHT22;1544;48.834;9.194;2023-02-10T00:35:32;-1.20;32.70
3067;DHT22;1544;48.834;9.194;2023-02-10T00:38:08;-1.20;32.80
3067;DHT22;1544;48.834;9.194;2023-02-10T00:40:43;-1.20;32.80
3067;DHT22;1544;48.834;9.194;2023-02-10T00:43:18;-1.20;32.80
3067;DHT22;1544;48.834;9.194;2023-02-10T00:45:52;-1.30;32.80
3067;DHT22;1544;48.834;9.194;2023-02-10T00:48:28;-1.30;32.90
3067;DHT22;1544;48.834;9.194;2023-02-10T00:51:03;-1.30;32.90
3067;DHT22;1544;48.834;9.194;2023-02-10T00:53:39;-1.30;33.00
3067;DHT22;1544;48.834;9.194;2023-02-10T00:56:14;-1.40;32.90
3067;DHT22;1544;48.834;9.194;2023-02-10T00:58:49;-1.30;33.00
3067;DHT22;1544;48.834;9.194;2023-02-10T01:01:24;-1.40;32.90
3067;DHT22;1544;48.834;9.194;2023-02-10T01:03:59;-1.30;33.10
3067;DHT22;1544;48.834;9.194;2023-02-10T01:06:34;-1.40;33.30
3067;DHT22;1544;48.834;9.194;2023-02-10T01:09:11;-0.70;33.90
3067;DHT22;1544;48.834;9.194;2023-02-10T01:11:46;-1.40;33.40
3067;DHT22;1544;48.834;9.194;2023-02-10T01:14:21;-1.40;33.60
3067;DHT22;1544;48.834;9.194;2023-02-10T01:16:56;-1.40;33.70
3067;DHT22;1544;48.834;9.194;2023-02-10T01:19:31;-1.40;33.80
3067;DHT22;1544;48.834;9.194;2023-02-10T01:22:06;-1.40;33.90
3067;DHT22;1544;48.834;9.194;2023-02-10T01:24:41;-1.40;33.90
3067;DHT22;1544;48.834;9.194;2023-02-10T01:27:16;-1.40;34.00
3067;DHT22;1544;48.834;9.194;2023-02-10T01:29:51;-1.40;34.00
3067;DHT22;1544;48.834;9.194;2023-02-10T01:32:25;-1.40;34.40
3067;DHT22;1544;48.834;9.194;2023-02-10T01:35:00;-1.40;34.10
3067;DHT22;1544;48.834;9.194;2023-02-10T01:37:37;-1.40;34.20
3067;DHT22;1544;48.834;9.194;2023-02-10T01:40:12;-1.40;34.20
3067;DHT22;1544;48.834;9.194;2023-02-10T01:42:47;-1.40;34.30
3067;DHT22;1544;48.834;9.194;2023-02-10T01:45:31;-1.40;34.30
3067;DHT22;1544;48.834;9.194;2023-02-10T01:48:08;-1.40;34.30
3067;DHT22;1544;48.834;9.194;2023-02-10T01:50:52;-1.40;34.90
3067;DHT22;1544;48.834;9.194;2023-02-10T01:53:30;-1.40;34.70
3067;DHT22;1544;48.834;9.194;2023-02-10T01:56:06;-1.40;34.80
3067;DHT22;1544;48.834;9.194;2023-02-10T01:58:42;-1.40;34.80
3067;DHT22;1544;48.834;9.194;2023-02-10T02:01:18;-1.40;34.80
3067;DHT22;1544;48.834;9.194;2023-02-10T02:03:53;-1.40;34.90
3067;DHT22;1544;48.834;9.194;2023-02-10T02:06:29;-1.30;35.10
3067;DHT22;1544;48.834;9.194;2023-02-10T02:09:05;-1.40;35.10
3067;DHT22;1544;48.834;9.194;2023-02-10T02:17:46;-1.30;35.20
3067;DHT22;1544;48.834;9.194;2023-02-10T02:21:02;-1.40;35.20
3067;DHT22;1544;48.834;9.194;2023-02-10T02:32:49;-1.40;35.10
3067;DHT22;1544;48.834;9.194;2023-02-10T02:35:32;-1.50;35.10
3067;DHT22;1544;48.834;9.194;2023-02-10T02:38:13;-1.50;35.10
3067;DHT22;1544;48.834;9.194;2023-02-10T02:40:49;-1.50;35.20
3067;DHT22;1544;48.834;9.194;2023-02-10T02:43:25;-1.50;35.60
3067;DHT22;1544;48.834;9.194;2023-02-10T02:46:35;-1.50;35.30
3067;DHT22;1544;48.834;9.194;2023-02-10T02:49:29;-1.50;35.40
3067;DHT22;1544;48.834;9.194;2023-02-10T02:52:20;-1.50;35.30
3067;DHT22;1544;48.834;9.194;2023-02-10T02:55:05;-1.50;35.30
3067;DHT22;1544;48.834;9.194;2023-02-10T02:57:53;-1.60;35.10
3067;DHT22;1544;48.834;9.194;2023-02-10T03:00:35;-1.60;35.00
3067;DHT22;1544;48.834;9.194;2023-02-10T03:03:11;-1.60;35.40
3067;DHT22;1544;48.834;9.194;2023-02-10T03:05:46;-1.60;35.10
3067;DHT22;1544;48.834;9.194;2023-02-10T03:08:21;-1.60;35.10
3067;DHT22;1544;48.834;9.194;2023-02-10T03:10:56;-1.70;35.00
3067;DHT22;1544;48.834;9.194;2023-02-10T03:13:31;-1.70;35.10
3067;DHT22;1544;48.834;9.194;2023-02-10T03:16:06;-1.70;35.20
3067;DHT22;1544;48.834;9.194;2023-02-10T03:18:41;-1.70;35.30
3067;DHT22;1544;48.834;9.194;2023-02-10T03:21:16;-1.70;35.30
3067;DHT22;1544;48.834;9.194;2023-02-10T03:23:51;-1.70;35.30
3067;DHT22;1544;48.834;9.194;2023-02-10T03:26:28;-1.70;35.20
3067;DHT22;1544;48.834;9.194;2023-02-10T03:29:04;-1.70;35.20
3067;DHT22;1544;48.834;9.194;2023-02-10T03:31:39;-1.70;35.10
3067;DHT22;1544;48.834;9.194;2023-02-10T03:34:15;-1.80;35.10
3067;DHT22;1544;48.834;9.194;2023-02-10T03:36:50;-1.80;35.50
3067;DHT22;1544;48.834;9.194;2023-02-10T03:39:25;-1.80;35.30
3067;DHT22;1544;48.834;9.194;2023-02-10T03:42:00;-1.80;35.40
3067;DHT22;1544;48.834;9.194;2023-02-10T03:44:35;-1.80;35.40
3067;DHT22;1544;48.834;9.194;2023-02-10T03:47:10;-1.80;35.40
3067;DHT22;1544;48.834;9.194;2023-02-10T03:49:45;-1.80;35.40
3067;DHT22;1544;48.834;9.194;2023-02-10T03:52:20;-1.80;35.40
3067;DHT22;1544;48.834;9.194;2023-02-10T03:54:55;-1.90;35.40
3067;DHT22;1544;48.834;9.194;2023-02-10T03:57:30;-1.90;35.40
3067;DHT22;1544;48.834;9.194;2023-02-10T04:00:05;-1.90;35.50
3067;DHT22;1544;48.834;9.194;2023-02-10T04:02:46;-1.90;35.50
3067;DHT22;1544;48.834;9.194;2023-02-10T04:05:21;-2.00;35.40
3067;DHT22;1544;48.834;9.194;2023-02-10T04:07:56;-2.00;35.40
3067;DHT22;1544;48.834;9.194;2023-02-10T04:10:31;-2.00;35.40
3067;DHT22;1544;48.834;9.194;2023-02-10T04:13:06;-2.00;35.50
3067;DHT22;1544;48.834;9.194;2023-02-10T04:15:41;-2.10;35.40
3067;DHT22;1544;48.834;9.194;2023-02-10T04:18:16;-2.10;35.40
3067;DHT22;1544;48.834;9.194;2023-02-10T04:20:51;-2.10;35.40
3067;DHT22;1544;48.834;9.194;2023-02-10T04:23:26;-2.10;35.40
3067;DHT22;1544;48.834;9.194;2023-02-10T04:26:01;-2.10;35.40
3067;DHT22;1544;48.834;9.194;2023-02-10T04:28:37;-2.20;35.30
3067;DHT22;1544;48.834;9.194;2023-02-10T04:31:12;-2.20;35.40
3067;DHT22;1544;48.834;9.194;2023-02-10T04:33:47;-2.20;35.40
3067;DHT22;1544;48.834;9.194;2023-02-10T04:36:22;-2.20;35.50
3067;DHT22;1544;48.834;9.194;2023-02-10T04:38:58;-2.30;35.60
3067;DHT22;1544;48.834;9.194;2023-02-10T04:41:33;-2.20;35.80
3067;DHT22;1544;48.834;9.194;2023-02-10T04:44:08;-2.20;36.00
3067;DHT22;1544;48.834;9.194;2023-02-10T04:46:43;-2.20;36.10
3067;DHT22;1544;48.834;9.194;2023-02-10T04:49:18;-2.20;36.30
3067;DHT22;1544;48.834;9.194;2023-02-10T04:51:53;-2.20;36.40
3067;DHT22;1544;48.834;9.194;2023-02-10T04:54:29;-2.20;36.50
3067;DHT22;1544;48.834;9.194;2023-02-10T04:57:04;-2.20;36.50
3067;DHT22;1544;48.834;9.194;2023-02-10T04:59:39;-2.20;36.60
3067;DHT22;1544;48.834;9.194;2023-02-10T05:02:14;-2.10;36.60
3067;DHT22;1544;48.834;9.194;2023-02-10T05:04:49;-2.10;36.70
3067;DHT22;1544;48.834;9.194;2023-02-10T05:07:24;-2.10;37.10
3067;DHT22;1544;48.834;9.194;2023-02-10T05:09:59;-2.10;36.80
3067;DHT22;1544;48.834;9.194;2023-02-10T05:12:34;-2.10;37.00
3067;DHT22;1544;48.834;9.194;2023-02-10T05:15:09;-2.10;37.00
3067;DHT22;1544;48.834;9.194;2023-02-10T05:17:47;-2.10;37.10
3067;DHT22;1544;48.834;9.194;2023-02-10T05:20:22;-2.10;37.00
3067;DHT22;1544;48.834;9.194;2023-02-10T05:22:57;-2.10;37.00
3067;DHT22;1544;48.834;9.194;2023-02-10T05:25:32;-2.10;37.00
3067;DHT22;1544;48.834;9.194;2023-02-10T05:28:07;-2.10;36.90
3067;DHT22;1544;48.834;9.194;2023-02-10T05:30:42;-2.00;37.20
3067;DHT22;1544;48.834;9.194;2023-02-10T05:33:17;-2.00;37.30
3067;DHT22;1544;48.834;9.194;2023-02-10T05:35:52;-2.10;37.30
3067;DHT22;1544;48.834;9.194;2023-02-10T05:38:27;-2.00;37.30
3067;DHT22;1544;48.834;9.194;2023-02-10T05:41:02;-2.00;37.30
3067;DHT22;1544;48.834;9.194;2023-02-10T05:43:37;-2.00;37.40
3067;DHT22;1544;48.834;9.194;2023-02-10T05:46:12;-2.00;37.40
3067;DHT22;1544;48.834;9.194;2023-02-10T05:48:47;-2.00;37.50
3067;DHT22;1544;48.834;9.194;2023-02-10T05:51:22;-2.00;37.50
3067;DHT22;1544;48.834;9.194;2023-02-10T05:53:57;-2.00;37.50
3067;DHT22;1544;48.834;9.194;2023-02-10T05:56:32;-2.10;37.50
3067;DHT22;1544;48.834;9.194;2023-02-10T05:59:08;-2.10;37.50
3067;DHT22;1544;48.834;9.194;2023-02-10T06:01:45;-2.10;37.70
3067;DHT22;1544;48.834;9.194;2023-02-10T06:04:20;-2.10;37.90
3067;DHT22;1544;48.834;9.194;2023-02-10T06:06:55;-2.10;38.00
3067;DHT22;1544;48.834;9.194;2023-02-10T06:09:30;-2.10;38.20
3067;DHT22;1544;48.834;9.194;2023-02-10T06:12:06;-2.10;38.30
3067;DHT22;1544;48.834;9.194;2023-02-10T06:14:41;-2.10;38.30
3067;DHT22;1544;48.834;9.194;2023-02-10T06:17:16;-2.20;38.30
3067;DHT22;1544;48.834;9.194;2023-02-10T06:19:51;-2.20;38.30
3067;DHT22;1544;48.834;9.194;2023-02-10T06:22:26;-2.20;38.30
3067;DHT22;1544;48.834;9.194;2023-02-10T06:25:00;-2.20;38.20
3067;DHT22;1544;48.834;9.194;2023-02-10T06:27:35;-2.20;38.30
3067;DHT22;1544;48.834;9.194;2023-02-10T06:30:11;-2.20;38.30
3067;DHT22;1544;48.834;9.194;2023-02-10T06:32:46;-2.20;38.30
3067;DHT22;1544;48.834;9.194;2023-02-10T06:35:21;-2.20;38.20
3067;DHT22;1544;48.834;9.194;2023-02-10T06:37:56;-2.20;38.20
3067;DHT22;1544;48.834;9.194;2023-02-10T06:40:31;-2.20;38.20
3067;DHT22;1544;48.834;9.194;2023-02-10T06:43:06;-2.20;38.10
3067;DHT22;1544;48.834;9.194;2023-02-10T06:45:41;-2.30;38.00
3067;DHT22;1544;48.834;9.194;2023-02-10T06:48:16;-2.30;37.90
3067;DHT22;1544;48.834;9.194;2023-02-10T06:50:51;-2.30;37.80
3067;DHT22;1544;48.834;9.194;2023-02-10T06:53:27;-2.30;37.80
3067;DHT22;1544;48.834;9.194;2023-02-10T06:56:02;-2.30;37.80
3067;DHT22;1544;48.834;9.194;2023-02-10T06:58:37;-2.40;37.80
3067;DHT22;1544;48.834;9.194;2023-02-10T07:01:16;-2.40;37.80
3067;DHT22;1544;48.834;9.194;2023-02-10T07:03:52;-2.40;37.80
3067;DHT22;1544;48.834;9.194;2023-02-10T07:06:26;-2.40;37.80
3067;DHT22;1544;48.834;9.194;2023-02-10T07:09:01;-2.40;37.80
3067;DHT22;1544;48.834;9.194;2023-02-10T07:11:38;-2.90;37.50
3067;DHT22;1544;48.834;9.194;2023-02-10T07:14:13;-2.40;37.90
3067;DHT22;1544;48.834;9.194;2023-02-10T07:16:48;-2.30;38.10
3067;DHT22;1544;48.834;9.194;2023-02-10T07:19:23;-2.30;38.20
3067;DHT22;1544;48.834;9.194;2023-02-10T07:21:58;-2.30;38.40
3067;DHT22;1544;48.834;9.194;2023-02-10T07:24:33;-2.30;38.60
3067;DHT22;1544;48.834;9.194;2023-02-10T07:27:08;-2.20;38.70
3067;DHT22;1544;48.834;9.194;2023-02-10T07:29:43;-2.10;38.90
3067;DHT22;1544;48.834;9.194;2023-02-10T07:32:18;-2.10;38.80
3067;DHT22;1544;48.834;9.194;2023-02-10T07:34:53;-0.40;40.00
3067;DHT22;1544;48.834;9.194;2023-02-10T07:37:28;-1.90;38.70
3067;DHT22;1544;48.834;9.194;2023-02-10T07:40:04;-1.80;38.60
3067;DHT22;1544;48.834;9.194;2023-02-10T07:42:40;-1.80;38.40
3067;DHT22;1544;48.834;9.194;2023-02-10T07:45:44;-1.70;38.40
3067;DHT22;1544;48.834;9.194;2023-02-10T07:48:19;-1.70;38.20
3067;DHT22;1544;48.834;9.194;2023-02-10T07:50:54;-1.60;38.30
3067;DHT22;1544;48.834;9.194;2023-02-10T07:53:29;-1.60;38.30
3067;DHT22;1544;48.834;9.194;2023-02-10T07:56:05;-1.50;38.40
3067;DHT22;1544;48.834;9.194;2023-02-10T07:58:40;-1.40;38.50
3067;DHT22;1544;48.834;9.194;2023-02-10T08:01:15;-1.40;38.60
3067;DHT22;1544;48.834;9.194;2023-02-10T08:03:50;-1.30;38.60
3067;DHT22;1544;48.834;9.194;2023-02-10T08:06:25;-1.30;38.80
3067;DHT22;1544;48.834;9.194;2023-02-10T08:09:01;-1.20;38.90
3067;DHT22;1544;48.834;9.194;2023-02-10T08:11:36;-1.10;38.90
3067;DHT22;1544;48.834;9.194;2023-02-10T08:14:11;-1.10;38.80
3067;DHT22;1544;48.834;9.194;2023-02-10T08:16:46;-1.00;38.80
3067;DHT22;1544;48.834;9.194;2023-02-10T08:19:21;-1.00;38.80
3067;DHT22;1544;48.834;9.194;2023-02-10T08:21:56;-0.90;38.80
3067;DHT22;1544;48.834;9.194;2023-02-10T08:24:31;-0.90;38.80
3067;DHT22;1544;48.834;9.194;2023-02-10T08:27:06;-0.80;38.70
3067;DHT22;1544;48.834;9.194;2023-02-10T08:29:41;-0.70;38.60
3067;DHT22;1544;48.834;9.194;2023-02-10T08:32:16;-0.70;38.40
3067;DHT22;1544;48.834;9.194;2023-02-10T08:34:53;-0.60;38.30
3067;DHT22;1544;48.834;9.194;2023-02-10T08:37:28;-0.50;38.20
3067;DHT22;1544;48.834;9.194;2023-02-10T08:40:03;-0.50;38.10
3067;DHT22;1544;48.834;9.194;2023-02-10T08:42:40;-0.50;37.90
3067;DHT22;1544;48.834;9.194;2023-02-10T08:45:15;-0.40;38.00
3067;DHT22;1544;48.834;9.194;2023-02-10T08:47:51;-0.30;37.80
3067;DHT22;1544;48.834;9.194;2023-02-10T08:50:27;-0.30;37.70
3067;DHT22;1544;48.834;9.194;2023-02-10T08:53:02;-0.30;37.40
3067;DHT22;1544;48.834;9.194;2023-02-10T08:55:37;-0.20;37.40
3067;DHT22;1544;48.834;9.194;2023-02-10T08:58:12;-0.20;37.30
3067;DHT22;1544;48.834;9.194;2023-02-10T09:00:47;-0.10;37.20
3067;DHT22;1544;48.834;9.194;2023-02-10T09:03:22;-0.20;37.10
3067;DHT22;1544;48.834;9.194;2023-02-10T09:05:57;0.00;37.20
3067;DHT22;1544;48.834;9.194;2023-02-10T09:08:32;0.00;37.00
3067;DHT22;1544;48.834;9.194;2023-02-10T09:11:08;0.10;36.90
3067;DHT22;1544;48.834;9.194;2023-02-10T09:13:43;0.20;36.80
3067;DHT22;1544;48.834;9.194;2023-02-10T09:16:19;0.30;36.70
3067;DHT22;1544;48.834;9.194;2023-02-10T09:18:54;0.30;36.60
3067;DHT22;1544;48.834;9.194;2023-02-10T09:21:29;0.40;36.50
3067;DHT22;1544;48.834;9.194;2023-02-10T09:24:20;0.50;36.30
3067;DHT22;1544;48.834;9.194;2023-02-10T09:26:56;0.60;36.20
3067;DHT22;1544;48.834;9.194;2023-02-10T09:29:31;0.60;36.00
3067;DHT22;1544;48.834;9.194;2023-02-10T09:32:06;0.70;35.90
3067;DHT22;1544;48.834;9.194;2023-02-10T09:34:41;0.80;35.90
3067;DHT22;1544;48.834;9.194;2023-02-10T09:37:17;0.90;35.80
3067;DHT22;1544;48.834;9.194;2023-02-10T09:39:52;1.00;35.60
3067;DHT22;1544;48.834;9.194;2023-02-10T09:42:39;1.10;35.60
3067;DHT22;1544;48.834;9.194;2023-02-10T09:45:38;1.20;35.50
3067;DHT22;1544;48.834;9.194;2023-02-10T09:48:53;1.30;35.30
3067;DHT22;1544;48.834;9.194;2023-02-10T09:54:41;1.40;35.00
3067;DHT22;1544;48.834;9.194;2023-02-10T09:57:38;1.50;35.00
3067;DHT22;1544;48.834;9.194;2023-02-10T10:00:24;1.60;34.90
3067;DHT22;1544;48.834;9.194;2023-02-10T10:03:10;1.70;34.70
3067;DHT22;1544;48.834;9.194;2023-02-10T10:11:53;2.00;34.40
3067;DHT22;1544;48.834;9.194;2023-02-10T10:14:39;2.00;34.30
3067;DHT22;1544;48.834;9.194;2023-02-10T10:17:37;2.10;34.00
3067;DHT22;1544;48.834;9.194;2023-02-10T10:24:23;2.40;34.00
3067;DHT22;1544;48.834;9.194;2023-02-10T10:27:16;2.50;33.80
3067;DHT22;1544;48.834;9.194;2023-02-10T10:30:05;2.60;33.70
3067;DHT22;1544;48.834;9.194;2023-02-10T10:32:47;2.80;33.70
3067;DHT22;1544;48.834;9.194;2023-02-10T10:35:46;2.90;33.30
3067;DHT22;1544;48.834;9.194;2023-02-10T10:38:26;3.10;33.20
3067;DHT22;1544;48.834;9.194;2023-02-10T10:41:08;3.30;33.10
3067;DHT22;1544;48.834;9.194;2023-02-10T10:43:48;3.40;33.00
3067;DHT22;1544;48.834;9.194;2023-02-10T10:46:33;3.70;33.10
3067;DHT22;1544;48.834;9.194;2023-02-10T10:49:20;3.90;33.00
3067;DHT22;1544;48.834;9.194;2023-02-10T10:51:55;4.20;33.00
3067;DHT22;1544;48.834;9.194;2023-02-10T10:54:31;4.50;32.60
3067;DHT22;1544;48.834;9.194;2023-02-10T10:57:06;4.90;32.60
3067;DHT22;1544;48.834;9.194;2023-02-10T10:59:48;5.30;32.20
3067;DHT22;1544;48.834;9.194;2023-02-10T11:02:27;5.70;32.00
3067;DHT22;1544;48.834;9.194;2023-02-10T11:05:04;6.20;31.20
3067;DHT22;1544;48.834;9.194;2023-02-10T11:07:49;6.60;31.30
3067;DHT22;1544;48.834;9.194;2023-02-10T11:13:26;7.50;30.10
3067;DHT22;1544;48.834;9.194;2023-02-10T11:16:12;8.00;29.70
3067;DHT22;1544;48.834;9.194;2023-02-10T11:18:56;8.40;29.50
3067;DHT22;1544;48.834;9.194;2023-02-10T11:21:36;8.70;29.10
3067;DHT22;1544;48.834;9.194;2023-02-10T11:24:25;9.00;28.90
3067;DHT22;1544;48.834;9.194;2023-02-10T11:27:13;9.40;28.70
3067;DHT22;1544;48.834;9.194;2023-02-10T11:29:57;9.60;28.40
3067;DHT22;1544;48.834;9.194;2023-02-10T11:32:34;9.80;28.00
3067;DHT22;1544;48.834;9.194;2023-02-10T11:35:16;10.00;27.00
3067;DHT22;1544;48.834;9.194;2023-02-10T11:38:05;10.20;26.50
3067;DHT22;1544;48.834;9.194;2023-02-10T11:43:31;10.50;25.80
3067;DHT22;1544;48.834;9.194;2023-02-10T11:46:23;10.60;25.40
3067;DHT22;1544;48.834;9.194;2023-02-10T11:49:02;10.60;24.70
3067;DHT22;1544;48.834;9.194;2023-02-10T11:51:39;10.70;24.80
3067;DHT22;1544;48.834;9.194;2023-02-10T11:54:26;10.60;24.10
3067;DHT22;1544;48.834;9.194;2023-02-10T11:57:04;10.50;24.30
3067;DHT22;1544;48.834;9.194;2023-02-10T12:01:01;10.40;24.40
3067;DHT22;1544;48.834;9.194;2023-02-10T12:03:59;10.30;24.60
3067;DHT22;1544;48.834;9.194;2023-02-10T12:09:55;10.30;23.60
3067;DHT22;1544;48.834;9.194;2023-02-10T12:12:42;10.20;24.10
3067;DHT22;1544;48.834;9.194;2023-02-10T12:15:33;10.20;24.10
3067;DHT22;1544;48.834;9.194;2023-02-10T12:21:48;10.40;24.80
3067;DHT22;1544;48.834;9.194;2023-02-10T12:27:16;10.70;25.90
3067;DHT22;1544;48.834;9.194;2023-02-10T12:30:11;10.90;26.30
3067;DHT22;1544;48.834;9.194;2023-02-10T12:34:11;11.00;25.10
3067;DHT22;1544;48.834;9.194;2023-02-10T12:52:39;11.80;25.70
3067;DHT22;1544;48.834;9.194;2023-02-10T12:55:24;12.00;25.60
3067;DHT22;1544;48.834;9.194;2023-02-10T12:58:08;12.30;25.10
3067;DHT22;1544;48.834;9.194;2023-02-10T13:01:21;12.40;24.80
3067;DHT22;1544;48.834;9.194;2023-02-10T13:04:14;12.50;25.00
3067;DHT22;1544;48.834;9.194;2023-02-10T13:07:04;12.80;25.80
3067;DHT22;1544;48.834;9.194;2023-02-10T13:12:52;12.90;22.60
3067;DHT22;1544;48.834;9.194;2023-02-10T13:15:38;12.90;23.80
3067;DHT22;1544;48.834;9.194;2023-02-10T13:18:21;13.00;23.10
3067;DHT22;1544;48.834;9.194;2023-02-10T13:23:46;13.20;23.10
3067;DHT22;1544;48.834;9.194;2023-02-10T13:29:40;13.40;23.50
3067;DHT22;1544;48.834;9.194;2023-02-10T13:35:22;13.30;23.30
3067;DHT22;1544;48.834;9.194;2023-02-10T13:38:05;13.30;22.50
3067;DHT22;1544;48.834;9.194;2023-02-10T13:40:48;13.30;24.90
3067;DHT22;1544;48.834;9.194;2023-02-10T13:43:30;13.40;23.10
3067;DHT22;1544;48.834;9.194;2023-02-10T13:46:20;13.30;23.40
3067;DHT22;1544;48.834;9.194;2023-02-10T13:48:59;13.30;23.10
3067;DHT22;1544;48.834;9.194;2023-02-10T13:51:37;13.30;22.30
3067;DHT22;1544;48.834;9.194;2023-02-10T13:54:24;13.50;24.60
3067;DHT22;1544;48.834;9.194;2023-02-10T13:57:04;13.60;23.80
3067;DHT22;1544;48.834;9.194;2023-02-10T13:59:40;13.70;23.60
3067;DHT22;1544;48.834;9.194;2023-02-10T14:02:19;13.90;23.00
3067;DHT22;1544;48.834;9.194;2023-02-10T14:04:56;14.10;24.30
3067;DHT22;1544;48.834;9.194;2023-02-10T14:07:33;14.20;23.10
3067;DHT22;1544;48.834;9.194;2023-02-10T14:12:57;14.00;22.30
3067;DHT22;1544;48.834;9.194;2023-02-10T14:16:07;14.00;22.40
3067;DHT22;1544;48.834;9.194;2023-02-10T14:19:19;13.90;21.70
3067;DHT22;1544;48.834;9.194;2023-02-10T14:25:30;13.20;21.50
3067;DHT22;1544;48.834;9.194;2023-02-10T14:28:19;13.00;21.70
3067;DHT22;1544;48.834;9.194;2023-02-10T14:31:00;13.00;21.60
3067;DHT22;1544;48.834;9.194;2023-02-10T14:33:38;12.90;21.30
3067;DHT22;1544;48.834;9.194;2023-02-10T14:36:17;12.90;22.40
3067;DHT22;1544;48.834;9.194;2023-02-10T14:38:57;13.10;22.80
3067;DHT22;1544;48.834;9.194;2023-02-10T14:41:33;13.20;22.40
3067;DHT22;1544;48.834;9.194;2023-02-10T14:44:23;13.20;22.40
3067;DHT22;1544;48.834;9.194;2023-02-10T14:47:20;13.30;22.00
3067;DHT22;1544;48.834;9.194;2023-02-10T14:49:58;13.30;22.70
3067;DHT22;1544;48.834;9.194;2023-02-10T14:52:35;13.20;21.40
3067;DHT22;1544;48.834;9.194;2023-02-10T14:58:15;12.90;21.70
3067;DHT22;1544;48.834;9.194;2023-02-10T15:01:34;12.80;21.90
3067;DHT22;1544;48.834;9.194;2023-02-10T15:04:14;12.70;21.50
3067;DHT22;1544;48.834;9.194;2023-02-10T15:06:52;12.60;21.50
3067;DHT22;1544;48.834;9.194;2023-02-10T15:09:33;12.50;21.40
3067;DHT22;1544;48.834;9.194;2023-02-10T15:12:11;12.40;21.90
3067;DHT22;1544;48.834;9.194;2023-02-10T15:15:02;12.30;22.30
3067;DHT22;1544;48.834;9.194;2023-02-10T15:18:02;12.30;21.90
3067;DHT22;1544;48.834;9.194;2023-02-10T15:20:49;12.30;22.10
3067;DHT22;1544;48.834;9.194;2023-02-10T15:23:29;12.30;22.00
3067;DHT22;1544;48.834;9.194;2023-02-10T15:26:23;12.20;22.30
3067;DHT22;1544;48.834;9.194;2023-02-10T15:29:10;12.20;23.10
3067;DHT22;1544;48.834;9.194;2023-02-10T15:31:55;12.20;23.20
3067;DHT22;1544;48.834;9.194;2023-02-10T15:34:32;12.20;22.80
3067;DHT22;1544;48.834;9.194;2023-02-10T15:37:17;12.10;22.70
3067;DHT22;1544;48.834;9.194;2023-02-10T15:39:58;12.10;22.80
3067;DHT22;1544;48.834;9.194;2023-02-10T15:42:35;11.90;22.80
3067;DHT22;1544;48.834;9.194;2023-02-10T15:45:14;11.90;22.90
3067;DHT22;1544;48.834;9.194;2023-02-10T15:47:57;11.80;22.80
3067;DHT22;1544;48.834;9.194;2023-02-10T15:50:57;11.60;22.60
3067;DHT22;1544;48.834;9.194;2023-02-10T15:53:32;11.40;22.90
3067;DHT22;1544;48.834;9.194;2023-02-10T15:56:07;11.30;23.20
3067;DHT22;1544;48.834;9.194;2023-02-10T15:58:42;11.10;22.80
3067;DHT22;1544;48.834;9.194;2023-02-10T16:01:17;10.90;23.60
3067;DHT22;1544;48.834;9.194;2023-02-10T16:03:52;10.80;23.80
3067;DHT22;1544;48.834;9.194;2023-02-10T16:06:27;10.60;23.00
3067;DHT22;1544;48.834;9.194;2023-02-10T16:09:02;10.40;23.10
3067;DHT22;1544;48.834;9.194;2023-02-10T16:11:38;10.20;23.30
3067;DHT22;1544;48.834;9.194;2023-02-10T16:14:13;10.00;23.60
3067;DHT22;1544;48.834;9.194;2023-02-10T16:16:54;9.80;24.10
3067;DHT22;1544;48.834;9.194;2023-02-10T16:19:30;9.70;24.40
3067;DHT22;1544;48.834;9.194;2023-02-10T16:22:05;9.50;24.40
3067;DHT22;1544;48.834;9.194;2023-02-10T16:24:40;9.40;24.50
3067;DHT22;1544;48.834;9.194;2023-02-10T16:27:15;9.20;24.60
3067;DHT22;1544;48.834;9.194;2023-02-10T16:29:50;9.10;24.70
3067;DHT22;1544;48.834;9.194;2023-02-10T16:32:25;9.00;24.90
3067;DHT22;1544;48.834;9.194;2023-02-10T16:35:00;8.80;25.00
3067;DHT22;1544;48.834;9.194;2023-02-10T16:37:35;8.70;25.00
3067;DHT22;1544;48.834;9.194;2023-02-10T16:40:34;8.50;25.30
3067;DHT22;1544;48.834;9.194;2023-02-10T16:43:10;8.40;25.40
3067;DHT22;1544;48.834;9.194;2023-02-10T16:45:45;8.20;25.10
3067;DHT22;1544;48.834;9.194;2023-02-10T16:48:20;8.10;25.20
3067;DHT22;1544;48.834;9.194;2023-02-10T16:50:55;7.90;25.20
3067;DHT22;1544;48.834;9.194;2023-02-10T16:53:31;7.90;25.50
3067;DHT22;1544;48.834;9.194;2023-02-10T16:56:14;7.70;25.60
3067;DHT22;1544;48.834;9.194;2023-02-10T16:58:50;7.60;25.60
3067;DHT22;1544;48.834;9.194;2023-02-10T17:01:26;7.50;25.60
3067;DHT22;1544;48.834;9.194;2023-02-10T17:04:01;7.40;25.60
3067;DHT22;1544;48.834;9.194;2023-02-10T17:06:45;7.30;25.70
3067;DHT22;1544;48.834;9.194;2023-02-10T17:09:24;7.20;25.80
3067;DHT22;1544;48.834;9.194;2023-02-10T17:11:59;7.10;25.70
3067;DHT22;1544;48.834;9.194;2023-02-10T17:14:36;7.00;25.70
3067;DHT22;1544;48.834;9.194;2023-02-10T17:17:21;6.80;25.80
3067;DHT22;1544;48.834;9.194;2023-02-10T17:19:55;6.80;25.90
3067;DHT22;1544;48.834;9.194;2023-02-10T17:22:34;6.60;25.90
3067;DHT22;1544;48.834;9.194;2023-02-10T17:25:09;6.60;26.00
3067;DHT22;1544;48.834;9.194;2023-02-10T17:27:45;6.50;26.00
3067;DHT22;1544;48.834;9.194;2023-02-10T17:30:22;6.40;26.10
3067;DHT22;1544;48.834;9.194;2023-02-10T17:32:58;6.40;26.20
3067;DHT22;1544;48.834;9.194;2023-02-10T17:35:34;6.30;26.10
3067;DHT22;1544;48.834;9.194;2023-02-10T17:38:09;6.20;26.10
3067;DHT22;1544;48.834;9.194;2023-02-10T17:41:09;6.20;26.10
3067;DHT22;1544;48.834;9.194;2023-02-10T17:43:44;6.10;26.20
3067;DHT22;1544;48.834;9.194;2023-02-10T17:46:20;6.00;26.20
3067;DHT22;1544;48.834;9.194;2023-02-10T17:48:55;5.90;26.20
3067;DHT22;1544;48.834;9.194;2023-02-10T17:51:32;5.80;26.10
3067;DHT22;1544;48.834;9.194;2023-02-10T17:54:08;5.80;26.20
3067;DHT22;1544;48.834;9.194;2023-02-10T17:56:43;5.70;26.20
3067;DHT22;1544;48.834;9.194;2023-02-10T17:59:18;5.70;26.30
3067;DHT22;1544;48.834;9.194;2023-02-10T18:01:54;5.60;26.50
3067;DHT22;1544;48.834;9.194;2023-02-10T18:04:32;5.60;26.50
3067;DHT22;1544;48.834;9.194;2023-02-10T18:07:07;5.50;26.50
3067;DHT22;1544;48.834;9.194;2023-02-10T18:09:43;5.40;26.50
3067;DHT22;1544;48.834;9.194;2023-02-10T18:12:18;5.40;26.60
3067;DHT22;1544;48.834;9.194;2023-02-10T18:14:53;5.30;26.60
3067;DHT22;1544;48.834;9.194;2023-02-10T18:17:28;5.30;26.70
3067;DHT22;1544;48.834;9.194;2023-02-10T18:20:04;5.20;26.70
3067;DHT22;1544;48.834;9.194;2023-02-10T18:22:40;5.20;26.70
3067;DHT22;1544;48.834;9.194;2023-02-10T18:25:18;5.10;26.70
3067;DHT22;1544;48.834;9.194;2023-02-10T18:27:53;5.00;26.70
3067;DHT22;1544;48.834;9.194;2023-02-10T18:30:28;4.90;26.80
3067;DHT22;1544;48.834;9.194;2023-02-10T18:33:04;4.80;26.90
3067;DHT22;1544;48.834;9.194;2023-02-10T18:35:39;4.80;27.00
3067;DHT22;1544;48.834;9.194;2023-02-10T18:38:15;4.70;27.10
3067;DHT22;1544;48.834;9.194;2023-02-10T18:40:50;4.70;27.20
3067;DHT22;1544;48.834;9.194;2023-02-10T18:43:28;4.60;27.60
3067;DHT22;1544;48.834;9.194;2023-02-10T18:46:03;4.60;27.40